Time;durP1;ratioP1;P1;durP2;ratioP2;P2;SDS_P1;SDS_P2;PMS_P1;PMS_P2;Temp;Humidity;BMP_temperature;BMP_pressure;BME280_temperature;BME280_humidity;BME280_pressure;Samples;Min_cycle;Max_cycle;Signal;HPM_P1;HPM_P2
2022/11/15 00:01:50;;;;;;;;;;;6.90;99.90;;;;;;1947931;73;20150;-76
2022/11/15 00:04:17;;;;;;;;;;;6.70;99.90;;;;;;1944266;73;20339;-75
2022/11/15 00:06:44;;;;;;;;;;;6.70;99.90;;;;;;1950691;73;20155;-76
2022/11/15 00:09:10;;;;;;;;;;;6.80;99.90;;;;;;1945143;74;20370;-75
2022/11/15 00:11:37;;;;;;;;;;;6.80;99.90;;;;;;1948913;73;20124;-75
2022/11/15 00:14:04;;;;;;;;;;;6.90;99.90;;;;;;1959017;73;20358;-74
2022/11/15 00:16:30;;;;;;;;;;;7.00;99.90;;;;;;1944957;73;20124;-76
2022/11/15 00:18:57;;;;;;;;;;;7.00;99.90;;;;;;1937005;73;20343;-76
2022/11/15 00:21:24;;;;;;;;;;;7.00;99.90;;;;;;1954071;73;20219;-75
2022/11/15 00:23:51;;;;;;;;;;;7.00;99.90;;;;;;1944384;73;20116;-76
2022/11/15 00:26:18;;;;;;;;;;;6.90;99.90;;;;;;1942914;73;20124;-74
2022/11/15 00:28:44;;;;;;;;;;;7.10;99.90;;;;;;1943379;74;20109;-76
2022/11/15 00:31:12;;;;;;;;;;;7.00;99.90;;;;;;1943249;73;20150;-75
2022/11/15 00:33:39;;;;;;;;;;;6.90;99.90;;;;;;1946973;73;20166;-76
2022/11/15 00:36:07;;;;;;;;;;;6.90;99.90;;;;;;1948996;73;20370;-76
2022/11/15 00:38:34;;;;;;;;;;;7.00;99.90;;;;;;1942340;73;20148;-76
2022/11/15 00:41:00;;;;;;;;;;;7.00;99.90;;;;;;1943316;73;20100;-76
2022/11/15 00:43:27;;;;;;;;;;;7.00;99.90;;;;;;1946204;73;20324;-75
2022/11/15 00:45:54;;;;;;;;;;;7.00;99.90;;;;;;1939770;73;20117;-76
2022/11/15 00:48:21;;;;;;;;;;;7.10;99.90;;;;;;1937965;73;20343;-75
2022/11/15 00:50:47;;;;;;;;;;;6.90;99.90;;;;;;1944282;73;20166;-74
2022/11/15 00:53:14;;;;;;;;;;;6.70;99.90;;;;;;1923744;74;20120;-76
2022/11/15 00:55:41;;;;;;;;;;;6.90;99.90;;;;;;1938681;73;20336;-76
2022/11/15 00:58:07;;;;;;;;;;;6.90;99.90;;;;;;1938040;73;20120;-77
2022/11/15 01:00:34;;;;;;;;;;;6.90;99.90;;;;;;1943357;74;20346;-76
2022/11/15 01:03:01;;;;;;;;;;;6.80;99.90;;;;;;1948730;74;20151;-77
2022/11/15 01:05:28;;;;;;;;;;;6.80;99.90;;;;;;1943745;73;20116;-76
2022/11/15 01:07:55;;;;;;;;;;;6.70;99.90;;;;;;1949007;74;20100;-76
2022/11/15 01:10:25;;;;;;;;;;;6.50;99.90;;;;;;1944504;73;20120;-75
2022/11/15 01:12:52;;;;;;;;;;;6.50;99.90;;;;;;1944717;73;20115;-77
2022/11/15 01:15:19;;;;;;;;;;;6.50;99.90;;;;;;1942126;73;20362;-76
2022/11/15 01:17:45;;;;;;;;;;;6.40;99.90;;;;;;1944306;73;20216;-76
2022/11/15 01:20:12;;;;;;;;;;;6.40;99.90;;;;;;1945310;73;20464;-76
2022/11/15 01:22:39;;;;;;;;;;;6.40;99.90;;;;;;1946402;73;20158;-75
2022/11/15 01:25:06;;;;;;;;;;;6.30;99.90;;;;;;1946354;73;20332;-75
2022/11/15 01:27:32;;;;;;;;;;;6.30;99.90;;;;;;1945431;74;20410;-76
2022/11/15 01:29:59;;;;;;;;;;;6.20;99.90;;;;;;1946282;73;20124;-76
2022/11/15 01:32:26;;;;;;;;;;;6.30;99.90;;;;;;1938747;73;20411;-77
2022/11/15 01:34:53;;;;;;;;;;;6.20;99.90;;;;;;1947691;73;20116;-77
2022/11/15 01:37:19;;;;;;;;;;;6.00;99.90;;;;;;1942920;73;20350;-77
2022/11/15 01:39:46;;;;;;;;;;;6.00;99.90;;;;;;1946150;73;20120;-76
2022/11/15 01:42:13;;;;;;;;;;;6.10;99.90;;;;;;1948658;73;20394;-77
2022/11/15 01:44:41;;;;;;;;;;;6.00;99.90;;;;;;1942009;74;20154;-77
2022/11/15 01:47:10;;;;;;;;;;;6.10;99.90;;;;;;1941921;74;20120;-78
2022/11/15 01:49:38;;;;;;;;;;;6.10;99.90;;;;;;1942605;74;20340;-77
2022/11/15 01:52:05;;;;;;;;;;;6.00;99.90;;;;;;1943642;74;20397;-76
2022/11/15 01:54:32;;;;;;;;;;;6.00;99.90;;;;;;1942403;74;20422;-76
2022/11/15 01:57:02;;;;;;;;;;;5.90;99.90;;;;;;1948722;73;20119;-76
2022/11/15 01:59:29;;;;;;;;;;;5.80;99.90;;;;;;1944859;74;20343;-76
2022/11/15 02:01:55;;;;;;;;;;;5.90;99.90;;;;;;1946486;73;20149;-77
2022/11/15 02:04:26;;;;;;;;;;;5.90;99.90;;;;;;1943777;73;20336;-76
2022/11/15 02:06:53;;;;;;;;;;;5.70;99.90;;;;;;1944098;73;20231;-77
2022/11/15 02:09:20;;;;;;;;;;;5.80;99.90;;;;;;1945728;73;20208;-76
2022/11/15 02:11:46;;;;;;;;;;;5.80;99.90;;;;;;1945865;73;20124;-76
2022/11/15 02:14:14;;;;;;;;;;;5.60;99.90;;;;;;1944305;73;20323;-77
2022/11/15 02:17:00;;;;;;;;;;;5.60;99.90;;;;;;1944456;73;20139;-77
2022/11/15 02:19:31;;;;;;;;;;;5.60;99.90;;;;;;1943232;73;20174;-76
2022/11/15 02:22:16;;;;;;;;;;;5.60;99.90;;;;;;1944457;73;20128;-76
2022/11/15 02:24:59;;;;;;;;;;;5.50;99.90;;;;;;1949735;73;20167;-76
2022/11/15 02:27:37;;;;;;;;;;;5.50;99.90;;;;;;1941241;73;20350;-76
2022/11/15 02:30:22;;;;;;;;;;;5.60;99.90;;;;;;1945488;73;20108;-78
2022/11/15 02:32:50;;;;;;;;;;;5.70;99.90;;;;;;1944754;73;20101;-76
2022/11/15 02:35:21;;;;;;;;;;;5.60;99.90;;;;;;1960506;73;20339;-77
2022/11/15 02:37:50;;;;;;;;;;;5.60;99.90;;;;;;1945673;73;20157;-78
2022/11/15 02:40:36;;;;;;;;;;;5.60;99.90;;;;;;1946565;73;20120;-78
2022/11/15 02:46:03;;;;;;;;;;;5.60;99.90;;;;;;1945622;73;20202;-77
2022/11/15 02:48:30;;;;;;;;;;;5.50;99.90;;;;;;1947660;73;20162;-77
2022/11/15 02:50:57;;;;;;;;;;;5.50;99.90;;;;;;1940805;74;20213;-76
2022/11/15 02:53:26;;;;;;;;;;;5.50;99.90;;;;;;1940894;73;20123;-77
2022/11/15 02:55:53;;;;;;;;;;;5.50;99.90;;;;;;1923951;74;20215;-76
2022/11/15 02:58:22;;;;;;;;;;;5.60;99.90;;;;;;1949396;73;20124;-76
2022/11/15 03:00:56;;;;;;;;;;;5.60;99.90;;;;;;1940179;73;20112;-77
2022/11/15 03:03:30;;;;;;;;;;;5.50;99.90;;;;;;1941128;74;20159;-77
2022/11/15 03:06:01;;;;;;;;;;;5.50;99.90;;;;;;1941963;73;20120;-77
2022/11/15 03:08:42;;;;;;;;;;;5.30;99.90;;;;;;1949374;73;20128;-76
2022/11/15 03:11:10;;;;;;;;;;;5.30;99.90;;;;;;1943136;73;20120;-76
2022/11/15 03:13:38;;;;;;;;;;;5.40;99.90;;;;;;1943361;74;20120;-75
2022/11/15 03:16:09;;;;;;;;;;;5.40;99.90;;;;;;1947100;73;20150;-77
2022/11/15 03:18:36;;;;;;;;;;;5.30;99.90;;;;;;1944403;74;20120;-77
2022/11/15 03:21:03;;;;;;;;;;;5.30;99.90;;;;;;1945957;73;20151;-75
2022/11/15 03:23:30;;;;;;;;;;;5.30;99.90;;;;;;1947506;73;20159;-76
2022/11/15 03:25:57;;;;;;;;;;;5.20;99.90;;;;;;1940720;73;20223;-76
2022/11/15 03:28:25;;;;;;;;;;;5.10;99.90;;;;;;1940164;74;20109;-77
2022/11/15 03:30:52;;;;;;;;;;;5.10;99.90;;;;;;1947601;74;20159;-76
2022/11/15 03:33:19;;;;;;;;;;;5.10;99.90;;;;;;1942461;73;20120;-76
2022/11/15 03:35:45;;;;;;;;;;;5.10;99.90;;;;;;1946053;73;20112;-76
2022/11/15 03:38:14;;;;;;;;;;;5.10;99.90;;;;;;1949258;73;20148;-76
2022/11/15 03:40:41;;;;;;;;;;;5.10;99.90;;;;;;1949308;73;20127;-75
2022/11/15 03:43:12;;;;;;;;;;;5.20;99.90;;;;;;1953762;73;20117;-77
2022/11/15 03:45:43;;;;;;;;;;;5.40;99.90;;;;;;1946998;73;20340;-77
2022/11/15 03:48:14;;;;;;;;;;;5.40;99.90;;;;;;1945782;74;20152;-76
2022/11/15 03:50:41;;;;;;;;;;;5.40;99.90;;;;;;1944048;74;20195;-76
2022/11/15 03:53:08;;;;;;;;;;;5.30;99.90;;;;;;1951023;73;20120;-76
2022/11/15 03:55:34;;;;;;;;;;;5.40;99.90;;;;;;1945649;73;20196;-76
2022/11/15 03:58:01;;;;;;;;;;;5.40;99.90;;;;;;1940275;73;20212;-77
2022/11/15 04:00:28;;;;;;;;;;;5.30;99.90;;;;;;1944303;73;20127;-76
2022/11/15 04:02:54;;;;;;;;;;;5.30;99.90;;;;;;1950140;73;20119;-77
2022/11/15 04:05:21;;;;;;;;;;;5.40;99.90;;;;;;1942700;73;20294;-76
2022/11/15 04:07:48;;;;;;;;;;;5.50;99.90;;;;;;1944886;73;20347;-77
2022/11/15 04:10:15;;;;;;;;;;;5.40;99.90;;;;;;1941568;73;20120;-77
2022/11/15 04:12:47;;;;;;;;;;;5.40;99.90;;;;;;1942355;74;20124;-75
2022/11/15 04:15:14;;;;;;;;;;;5.40;99.90;;;;;;1943183;73;20175;-78
2022/11/15 04:17:42;;;;;;;;;;;5.20;99.90;;;;;;1939508;73;20116;-77
2022/11/15 04:25:40;;;;;;;;;;;5.40;99.90;;;;;;1925184;73;20120;-77
2022/11/15 04:28:07;;;;;;;;;;;5.30;99.90;;;;;;1954962;73;20365;-76
2022/11/15 04:30:33;;;;;;;;;;;5.30;99.90;;;;;;1945566;73;20177;-77
2022/11/15 04:33:00;;;;;;;;;;;5.20;99.90;;;;;;1944998;74;20476;-76
2022/11/15 04:35:27;;;;;;;;;;;5.20;99.90;;;;;;1949543;73;20112;-76
2022/11/15 04:37:54;;;;;;;;;;;5.30;99.90;;;;;;1942760;73;20136;-77
2022/11/15 04:40:20;;;;;;;;;;;5.30;99.90;;;;;;1944741;73;20146;-77
2022/11/15 04:42:47;;;;;;;;;;;5.30;99.90;;;;;;1942163;73;20149;-77
2022/11/15 04:45:14;;;;;;;;;;;5.20;99.90;;;;;;1947255;73;20344;-77
2022/11/15 04:47:42;;;;;;;;;;;5.10;99.90;;;;;;1946777;73;20112;-77
2022/11/15 04:50:12;;;;;;;;;;;5.30;99.90;;;;;;1950796;73;20151;-77
2022/11/15 04:52:37;;;;;;;;;;;5.10;99.90;;;;;;1944489;73;20148;-78
2022/11/15 04:55:06;;;;;;;;;;;5.20;99.90;;;;;;1950546;73;20594;-78
2022/11/15 04:57:32;;;;;;;;;;;5.10;99.90;;;;;;1945668;73;20152;-76
2022/11/15 04:59:59;;;;;;;;;;;5.10;99.90;;;;;;1942320;73;20108;-77
2022/11/15 05:04:18;;;;;;;;;;;5.00;99.90;;;;;;1955428;73;20107;-78
2022/11/15 05:04:54;;;;;;;;;;;5.10;99.90;;;;;;1941494;73;20128;-75
2022/11/15 05:07:21;;;;;;;;;;;5.00;99.90;;;;;;1941568;73;20190;-77
2022/11/15 05:09:47;;;;;;;;;;;5.00;99.90;;;;;;1943669;73;20108;-76
2022/11/15 05:12:14;;;;;;;;;;;4.90;99.90;;;;;;1952235;73;20112;-77
2022/11/15 05:14:42;;;;;;;;;;;5.00;99.90;;;;;;1949076;73;20113;-77
2022/11/15 05:17:09;;;;;;;;;;;4.90;99.90;;;;;;1951294;74;20103;-77
2022/11/15 05:19:36;;;;;;;;;;;4.80;99.90;;;;;;1947164;73;20377;-78
2022/11/15 05:22:03;;;;;;;;;;;4.70;99.90;;;;;;1941886;73;20138;-78
2022/11/15 05:24:30;;;;;;;;;;;4.80;99.90;;;;;;1940579;73;20116;-77
2022/11/15 05:26:57;;;;;;;;;;;4.90;99.90;;;;;;1944886;74;20123;-77
2022/11/15 05:29:23;;;;;;;;;;;4.80;99.90;;;;;;1944949;73;20120;-78
2022/11/15 05:31:50;;;;;;;;;;;4.80;99.90;;;;;;1942985;73;20127;-78
2022/11/15 05:34:17;;;;;;;;;;;4.80;99.90;;;;;;1941308;74;20112;-77
2022/11/15 05:36:45;;;;;;;;;;;4.80;99.90;;;;;;1944362;73;20121;-78
2022/11/15 05:39:12;;;;;;;;;;;4.70;99.90;;;;;;1942214;73;20143;-77
2022/11/15 05:41:43;;;;;;;;;;;4.80;99.90;;;;;;1943862;73;20158;-77
2022/11/15 05:44:10;;;;;;;;;;;4.90;99.90;;;;;;1945376;73;20116;-76
2022/11/15 05:46:37;;;;;;;;;;;4.80;99.90;;;;;;1946208;73;20131;-77
2022/11/15 05:49:04;;;;;;;;;;;4.90;99.90;;;;;;1946300;73;20157;-78
2022/11/15 05:51:31;;;;;;;;;;;4.80;99.90;;;;;;1942116;73;20124;-78
2022/11/15 05:53:58;;;;;;;;;;;4.70;99.90;;;;;;1946707;73;20136;-77
2022/11/15 05:56:25;;;;;;;;;;;4.70;99.90;;;;;;1947308;73;20181;-78
2022/11/15 05:58:53;;;;;;;;;;;4.70;99.90;;;;;;1941479;74;20112;-77
2022/11/15 06:01:20;;;;;;;;;;;4.70;99.90;;;;;;1943359;73;20368;-78
2022/11/15 06:03:47;;;;;;;;;;;4.70;99.90;;;;;;1948245;73;20109;-81
2022/11/15 06:06:14;;;;;;;;;;;4.80;99.90;;;;;;1945329;74;20128;-77
2022/11/15 06:08:42;;;;;;;;;;;4.70;99.90;;;;;;1943894;74;20105;-77
2022/11/15 06:11:09;;;;;;;;;;;4.60;99.90;;;;;;1944881;74;20339;-76
2022/11/15 06:13:35;;;;;;;;;;;4.70;99.90;;;;;;1946013;73;20149;-76
2022/11/15 06:16:02;;;;;;;;;;;4.70;99.90;;;;;;1953417;73;20143;-75
2022/11/15 06:18:30;;;;;;;;;;;4.70;99.90;;;;;;1955152;73;20324;-76
2022/11/15 06:20:59;;;;;;;;;;;4.70;99.90;;;;;;1951182;74;20101;-76
2022/11/15 06:23:26;;;;;;;;;;;4.70;99.90;;;;;;1942314;73;20127;-76
2022/11/15 06:25:53;;;;;;;;;;;4.70;99.90;;;;;;1949250;73;20182;-78
2022/11/15 06:28:19;;;;;;;;;;;4.70;99.90;;;;;;1951486;73;20146;-78
2022/11/15 06:30:46;;;;;;;;;;;4.60;99.90;;;;;;1944139;73;20123;-78
2022/11/15 06:33:13;;;;;;;;;;;4.60;99.90;;;;;;1937676;73;20152;-77
2022/11/15 06:35:39;;;;;;;;;;;4.60;99.90;;;;;;1943248;73;20200;-75
2022/11/15 06:38:07;;;;;;;;;;;4.60;99.90;;;;;;1944138;74;20166;-74
2022/11/15 06:40:35;;;;;;;;;;;4.60;99.90;;;;;;1941056;73;20271;-75
2022/11/15 06:43:01;;;;;;;;;;;4.60;99.90;;;;;;1952326;73;20147;-74
2022/11/15 06:45:28;;;;;;;;;;;4.60;99.90;;;;;;1950496;73;20105;-74
2022/11/15 06:47:55;;;;;;;;;;;4.60;99.90;;;;;;1948656;73;20112;-75
2022/11/15 06:50:21;;;;;;;;;;;4.60;99.90;;;;;;1945729;73;20328;-75
2022/11/15 06:52:48;;;;;;;;;;;4.70;99.90;;;;;;1939685;73;20109;-73
2022/11/15 06:55:15;;;;;;;;;;;4.70;99.90;;;;;;1948318;73;20313;-76
2022/11/15 06:57:51;;;;;;;;;;;4.70;99.90;;;;;;1953093;73;20150;-76
2022/11/15 07:00:18;;;;;;;;;;;4.70;99.90;;;;;;1945119;73;20335;-74
2022/11/15 07:02:45;;;;;;;;;;;4.70;99.90;;;;;;1941813;74;20372;-75
2022/11/15 07:05:11;;;;;;;;;;;4.80;99.90;;;;;;1943988;73;20127;-76
2022/11/15 07:07:38;;;;;;;;;;;4.80;99.90;;;;;;1954068;73;20171;-76
2022/11/15 07:10:05;;;;;;;;;;;5.00;99.90;;;;;;1940345;73;20146;-75
2022/11/15 07:12:32;;;;;;;;;;;5.00;99.90;;;;;;1951073;73;20393;-75
2022/11/15 07:14:59;;;;;;;;;;;5.10;99.90;;;;;;1946349;74;20120;-77
2022/11/15 07:17:25;;;;;;;;;;;5.00;99.90;;;;;;1951341;73;20153;-76
2022/11/15 07:19:52;;;;;;;;;;;5.10;99.90;;;;;;1949647;73;20170;-76
2022/11/15 07:22:19;;;;;;;;;;;5.20;99.90;;;;;;1940766;74;20154;-76
2022/11/15 07:24:45;;;;;;;;;;;5.30;99.90;;;;;;1938409;74;20116;-76
2022/11/15 07:27:12;;;;;;;;;;;5.40;99.90;;;;;;1940181;74;20116;-75
2022/11/15 07:29:39;;;;;;;;;;;5.50;99.90;;;;;;1918896;73;20150;-76
2022/11/15 07:32:06;;;;;;;;;;;5.40;99.90;;;;;;1943475;74;20203;-76
2022/11/15 07:34:32;;;;;;;;;;;5.50;99.90;;;;;;1933706;74;20120;-76
2022/11/15 07:36:59;;;;;;;;;;;5.50;99.90;;;;;;1949298;73;20480;-75
2022/11/15 07:39:26;;;;;;;;;;;5.60;99.90;;;;;;1949387;73;20116;-76
2022/11/15 07:42:52;;;;;;;;;;;5.70;99.90;;;;;;1948022;73;20440;-76
2022/11/15 07:44:21;;;;;;;;;;;5.80;99.90;;;;;;1940013;73;20120;-76
2022/11/15 07:46:47;;;;;;;;;;;5.90;99.90;;;;;;1944506;73;20124;-76
2022/11/15 07:49:14;;;;;;;;;;;5.80;99.90;;;;;;1944193;73;20154;-75
2022/11/15 07:51:41;;;;;;;;;;;5.90;99.90;;;;;;1943267;73;20154;-76
2022/11/15 07:54:09;;;;;;;;;;;6.00;99.90;;;;;;1938368;74;20124;-76
2022/11/15 07:56:36;;;;;;;;;;;6.20;99.90;;;;;;1938218;73;20124;-76
2022/11/15 07:59:02;;;;;;;;;;;6.30;99.90;;;;;;1944330;74;20120;-76
2022/11/15 08:01:29;;;;;;;;;;;6.50;99.90;;;;;;1951558;73;20153;-75
2022/11/15 08:03:56;;;;;;;;;;;6.40;99.90;;;;;;1942871;73;20203;-74
2022/11/15 08:06:23;;;;;;;;;;;6.60;99.90;;;;;;1944584;73;20431;-74
2022/11/15 08:08:49;;;;;;;;;;;6.70;99.90;;;;;;1941951;73;20124;-75
2022/11/15 08:11:16;;;;;;;;;;;6.80;99.90;;;;;;1952133;73;20354;-75
2022/11/15 08:13:43;;;;;;;;;;;6.80;99.90;;;;;;1951604;73;20163;-75
2022/11/15 08:16:11;;;;;;;;;;;6.80;99.90;;;;;;1942168;74;20370;-75
2022/11/15 08:18:38;;;;;;;;;;;7.00;99.90;;;;;;1944539;73;20147;-76
2022/11/15 08:21:04;;;;;;;;;;;7.20;99.90;;;;;;1951466;74;20119;-75
2022/11/15 08:23:31;;;;;;;;;;;7.40;99.90;;;;;;1947189;73;20119;-75
2022/11/15 08:26:03;;;;;;;;;;;7.40;99.90;;;;;;1945631;73;20120;-75
2022/11/15 08:28:30;;;;;;;;;;;7.60;99.90;;;;;;1944696;73;20119;-74
2022/11/15 08:30:56;;;;;;;;;;;7.80;99.90;;;;;;1952977;73;20104;-74
2022/11/15 08:33:23;;;;;;;;;;;8.20;99.90;;;;;;1950072;73;20152;-75
2022/11/15 08:35:50;;;;;;;;;;;8.50;99.90;;;;;;1942357;73;20104;-76
2022/11/15 08:38:16;;;;;;;;;;;8.50;99.90;;;;;;1943342;74;20116;-74
2022/11/15 08:40:43;;;;;;;;;;;8.70;99.90;;;;;;1943270;73;20249;-75
2022/11/15 08:43:11;;;;;;;;;;;8.60;99.90;;;;;;1948960;73;20182;-75
2022/11/15 08:45:38;;;;;;;;;;;8.60;99.90;;;;;;1946742;73;20150;-74
2022/11/15 08:48:05;;;;;;;;;;;8.60;99.90;;;;;;1945002;74;20177;-74
2022/11/15 08:50:32;;;;;;;;;;;8.70;99.90;;;;;;1945790;73;20108;-74
2022/11/15 08:53:00;;;;;;;;;;;8.80;99.90;;;;;;1949284;73;20292;-74
2022/11/15 08:55:27;;;;;;;;;;;8.90;99.90;;;;;;1943321;73;20165;-74
2022/11/15 08:57:54;;;;;;;;;;;9.00;99.90;;;;;;1943596;73;20150;-75
2022/11/15 09:00:20;;;;;;;;;;;9.10;99.90;;;;;;1950952;73;20155;-74
2022/11/15 09:02:47;;;;;;;;;;;9.30;99.90;;;;;;1934347;73;20187;-75
2022/11/15 09:05:15;;;;;;;;;;;9.30;99.90;;;;;;1942703;73;20105;-75
2022/11/15 09:07:42;;;;;;;;;;;9.40;99.90;;;;;;1958571;73;20354;-75
2022/11/15 09:10:11;;;;;;;;;;;9.50;99.90;;;;;;1960865;73;20185;-74
2022/11/15 09:12:37;;;;;;;;;;;9.60;99.90;;;;;;1944896;73;20152;-74
2022/11/15 09:15:04;;;;;;;;;;;9.90;99.90;;;;;;1945586;73;20209;-76
2022/11/15 09:17:31;;;;;;;;;;;10.00;99.90;;;;;;1942683;74;20170;-75
2022/11/15 09:19:58;;;;;;;;;;;10.30;99.90;;;;;;1942267;74;20155;-74
2022/11/15 09:22:25;;;;;;;;;;;10.50;99.90;;;;;;1945190;73;20140;-74
2022/11/15 09:24:51;;;;;;;;;;;10.60;99.90;;;;;;1950365;73;20119;-73
2022/11/15 09:27:18;;;;;;;;;;;10.50;99.90;;;;;;1957333;73;20146;-74
2022/11/15 09:29:45;;;;;;;;;;;10.70;99.90;;;;;;1950503;73;20119;-74
2022/11/15 09:32:12;;;;;;;;;;;10.80;99.90;;;;;;1944978;73;20390;-74
2022/11/15 09:34:39;;;;;;;;;;;10.80;99.90;;;;;;1945019;73;20301;-75
2022/11/15 09:37:05;;;;;;;;;;;10.80;99.90;;;;;;1956468;73;20119;-75
2022/11/15 09:39:32;;;;;;;;;;;10.70;99.90;;;;;;1948491;73;20112;-75
2022/11/15 09:42:17;;;;;;;;;;;10.80;99.90;;;;;;1939496;73;20120;-75
2022/11/15 09:44:55;;;;;;;;;;;10.80;99.90;;;;;;1948416;73;20112;-73
2022/11/15 09:47:23;;;;;;;;;;;11.10;99.90;;;;;;1948205;73;20116;-73
2022/11/15 09:49:53;;;;;;;;;;;11.20;99.90;;;;;;1945038;73;20149;-75
2022/11/15 09:52:20;;;;;;;;;;;11.30;99.90;;;;;;1944847;73;20116;-74
2022/11/15 09:54:48;;;;;;;;;;;11.60;99.90;;;;;;1945176;73;20243;-74
2022/11/15 09:57:19;;;;;;;;;;;11.90;99.90;;;;;;1951202;73;20116;-74
2022/11/15 09:59:48;;;;;;;;;;;12.00;99.90;;;;;;1940048;74;20104;-74
2022/11/15 10:02:19;;;;;;;;;;;12.40;99.90;;;;;;1958312;73;20123;-74
2022/11/15 10:04:46;;;;;;;;;;;12.50;99.90;;;;;;1946918;73;20206;-74
2022/11/15 10:07:20;;;;;;;;;;;12.70;99.90;;;;;;1946420;73;20139;-73
2022/11/15 10:09:58;;;;;;;;;;;12.50;99.90;;;;;;1943337;73;20332;-74
2022/11/15 10:12:25;;;;;;;;;;;12.50;99.90;;;;;;1950865;73;20324;-74
2022/11/15 10:14:53;;;;;;;;;;;12.60;99.90;;;;;;1945701;73;20200;-74
2022/11/15 10:17:21;;;;;;;;;;;12.70;99.90;;;;;;1947633;73;20157;-74
2022/11/15 10:19:50;;;;;;;;;;;12.80;99.90;;;;;;1941965;73;20104;-73
2022/11/15 10:22:22;;;;;;;;;;;12.50;99.90;;;;;;1943249;73;20160;-73
2022/11/15 10:24:48;;;;;;;;;;;12.50;99.90;;;;;;1943115;73;20118;-72
2022/11/15 10:27:16;;;;;;;;;;;12.30;99.90;;;;;;1943092;74;20366;-72
2022/11/15 10:29:44;;;;;;;;;;;12.70;99.90;;;;;;1947885;73;20319;-72
2022/11/15 10:32:14;;;;;;;;;;;12.90;99.90;;;;;;1948098;73;20108;-70
2022/11/15 10:34:40;;;;;;;;;;;12.90;99.90;;;;;;1943009;74;20375;-71
2022/11/15 10:37:07;;;;;;;;;;;12.80;99.90;;;;;;1945137;73;20096;-69
2022/11/15 10:39:34;;;;;;;;;;;12.90;99.90;;;;;;1948599;73;20187;-71
2022/11/15 10:42:05;;;;;;;;;;;13.00;99.90;;;;;;1941400;74;20117;-72
2022/11/15 10:44:32;;;;;;;;;;;13.00;99.90;;;;;;1937519;73;20120;-76
2022/11/15 10:47:00;;;;;;;;;;;13.00;99.90;;;;;;1944981;73;20166;-72
2022/11/15 10:49:32;;;;;;;;;;;13.10;99.90;;;;;;1943841;73;20124;-73
2022/11/15 10:51:58;;;;;;;;;;;13.60;99.90;;;;;;1947442;73;20106;-72
2022/11/15 10:54:26;;;;;;;;;;;13.70;99.90;;;;;;1952203;73;20150;-72
2022/11/15 10:56:54;;;;;;;;;;;13.50;99.90;;;;;;1950597;73;20344;-72
2022/11/15 10:59:33;;;;;;;;;;;13.90;99.90;;;;;;1949434;73;20396;-72
2022/11/15 11:02:00;;;;;;;;;;;13.30;99.90;;;;;;1945236;74;20227;-73
2022/11/15 11:04:26;;;;;;;;;;;13.20;99.90;;;;;;1941208;74;20123;-72
2022/11/15 11:06:58;;;;;;;;;;;13.50;99.90;;;;;;1941364;73;20194;-74
2022/11/15 11:09:32;;;;;;;;;;;13.50;99.90;;;;;;1934958;73;20398;-70
2022/11/15 11:11:59;;;;;;;;;;;13.80;99.90;;;;;;1949028;74;20161;-70
2022/11/15 11:14:31;;;;;;;;;;;13.60;99.90;;;;;;1945192;73;20124;-72
2022/11/15 11:17:02;;;;;;;;;;;13.90;99.90;;;;;;1943158;73;20112;-71
2022/11/15 11:19:31;;;;;;;;;;;14.20;99.90;;;;;;1949453;73;20331;-71
2022/11/15 11:22:02;;;;;;;;;;;14.40;99.90;;;;;;1946671;73;20199;-78
2022/11/15 11:24:30;;;;;;;;;;;14.40;99.90;;;;;;1943476;73;20122;-71
2022/11/15 11:27:17;;;;;;;;;;;14.20;99.90;;;;;;1946431;73;20340;-75
2022/11/15 11:29:51;;;;;;;;;;;13.70;99.90;;;;;;1945915;73;20205;-72
2022/11/15 11:32:36;;;;;;;;;;;13.50;99.90;;;;;;1941651;73;20173;-73
2022/11/15 11:35:13;;;;;;;;;;;13.40;99.90;;;;;;1946474;73;20112;-73
2022/11/15 11:37:44;;;;;;;;;;;13.50;99.90;;;;;;1943127;73;20109;-72
2022/11/15 11:40:30;;;;;;;;;;;13.40;99.90;;;;;;1935996;73;20156;-70
2022/11/15 11:43:07;;;;;;;;;;;13.70;99.90;;;;;;1941228;73;20185;-70
2022/11/15 11:45:38;;;;;;;;;;;13.70;99.90;;;;;;1949208;73;20189;-71
2022/11/15 11:48:13;;;;;;;;;;;13.50;99.90;;;;;;1943351;73;20150;-71
2022/11/15 11:50:40;;;;;;;;;;;13.70;99.90;;;;;;1944169;73;20120;-71
2022/11/15 11:53:24;;;;;;;;;;;14.10;99.90;;;;;;1940504;73;20109;-71
2022/11/15 11:55:52;;;;;;;;;;;14.40;99.90;;;;;;1949689;73;20119;-72
2022/11/15 11:58:23;;;;;;;;;;;14.10;99.90;;;;;;1939973;74;20120;-72
2022/11/15 12:00:52;;;;;;;;;;;14.00;99.90;;;;;;1948054;73;20325;-74
2022/11/15 12:03:26;;;;;;;;;;;14.00;99.90;;;;;;1941478;73;20105;-73
2022/11/15 12:05:55;;;;;;;;;;;14.10;99.90;;;;;;1945318;73;20345;-74
2022/11/15 12:08:38;;;;;;;;;;;14.10;99.90;;;;;;1943013;73;20196;-75
2022/11/15 12:11:06;;;;;;;;;;;14.10;99.90;;;;;;1880371;76;20417;-74
2022/11/15 12:13:36;;;;;;;;;;;14.00;99.90;;;;;;1929451;73;20202;-74
2022/11/15 12:16:04;;;;;;;;;;;14.00;99.90;;;;;;1946805;73;20152;-73
2022/11/15 12:18:31;;;;;;;;;;;14.00;99.90;;;;;;1942367;73;20130;-74
2022/11/15 12:20:59;;;;;;;;;;;13.90;99.90;;;;;;1942347;73;20102;-73
2022/11/15 12:23:30;;;;;;;;;;;13.90;99.90;;;;;;1945506;73;20115;-75
2022/11/15 12:25:59;;;;;;;;;;;13.80;99.90;;;;;;1941292;73;20192;-75
2022/11/15 12:28:27;;;;;;;;;;;13.80;99.90;;;;;;1940607;74;20342;-74
2022/11/15 12:30:58;;;;;;;;;;;13.80;99.90;;;;;;1942426;74;20115;-75
2022/11/15 12:33:29;;;;;;;;;;;13.70;99.90;;;;;;1942846;73;20151;-74
2022/11/15 12:36:00;;;;;;;;;;;13.70;99.90;;;;;;1925910;74;20151;-75
2022/11/15 12:38:45;;;;;;;;;;;13.60;99.90;;;;;;1943888;73;20161;-76
2022/11/15 12:41:13;;;;;;;;;;;13.60;99.90;;;;;;1939621;73;20333;-75
2022/11/15 12:43:41;;;;;;;;;;;13.60;99.90;;;;;;1939148;73;20113;-76
2022/11/15 12:46:10;;;;;;;;;;;13.80;99.90;;;;;;1941068;74;20153;-74
2022/11/15 12:48:38;;;;;;;;;;;13.90;99.90;;;;;;1943952;73;20147;-74
2022/11/15 12:51:05;;;;;;;;;;;13.70;99.90;;;;;;1932254;74;20116;-72
2022/11/15 12:53:32;;;;;;;;;;;13.70;99.90;;;;;;1949230;73;20111;-72
2022/11/15 12:56:06;;;;;;;;;;;13.60;99.90;;;;;;1947408;74;20131;-70
2022/11/15 12:58:51;;;;;;;;;;;13.70;99.90;;;;;;1944090;73;20253;-71
2022/11/15 13:01:35;;;;;;;;;;;13.60;99.90;;;;;;1933380;73;20132;-70
2022/11/15 13:04:15;;;;;;;;;;;13.60;99.90;;;;;;1942249;73;20116;-70
2022/11/15 13:06:44;;;;;;;;;;;13.60;99.90;;;;;;1940597;73;20180;-69
2022/11/15 13:09:29;;;;;;;;;;;13.60;99.90;;;;;;1939838;73;20116;-69
2022/11/15 13:11:56;;;;;;;;;;;13.50;99.90;;;;;;1942311;73;20115;-70
2022/11/15 13:14:39;;;;;;;;;;;13.60;99.90;;;;;;1953462;73;20307;-70
2022/11/15 13:17:19;;;;;;;;;;;13.60;99.90;;;;;;1931172;73;20172;-70
2022/11/15 13:19:47;;;;;;;;;;;13.60;99.90;;;;;;1943335;73;20133;-70
2022/11/15 13:24:59;;;;;;;;;;;13.60;99.90;;;;;;1943629;74;20158;-71
2022/11/15 13:27:26;;;;;;;;;;;13.60;99.90;;;;;;1945607;73;20120;-71
2022/11/15 13:29:52;;;;;;;;;;;13.60;99.90;;;;;;1946289;73;20218;-70
2022/11/15 13:32:19;;;;;;;;;;;13.60;99.90;;;;;;1945153;73;20127;-71
2022/11/15 13:34:47;;;;;;;;;;;13.60;99.90;;;;;;1942183;73;20126;-73
2022/11/15 13:37:15;;;;;;;;;;;13.50;99.90;;;;;;1934549;73;20153;-71
2022/11/15 13:39:42;;;;;;;;;;;13.60;99.90;;;;;;1931171;74;20134;-75
2022/11/15 13:42:10;;;;;;;;;;;13.60;99.90;;;;;;1942853;73;20113;-72
2022/11/15 13:44:37;;;;;;;;;;;13.80;99.90;;;;;;1943532;73;20129;-71
2022/11/15 13:47:04;;;;;;;;;;;13.70;99.90;;;;;;1943262;74;20333;-71
2022/11/15 13:49:32;;;;;;;;;;;13.60;99.90;;;;;;1945609;73;20343;-71
2022/11/15 13:51:58;;;;;;;;;;;13.50;99.90;;;;;;1948817;73;20125;-73
2022/11/15 13:54:29;;;;;;;;;;;13.50;99.90;;;;;;1946837;73;20125;-71
2022/11/15 13:56:57;;;;;;;;;;;13.60;99.90;;;;;;1943690;73;20164;-73
2022/11/15 13:59:25;;;;;;;;;;;13.70;99.90;;;;;;1942236;73;20128;-71
2022/11/15 14:01:53;;;;;;;;;;;13.60;99.90;;;;;;1947320;73;20136;-71
2022/11/15 14:04:20;;;;;;;;;;;13.50;99.90;;;;;;1944934;73;20124;-72
2022/11/15 14:06:48;;;;;;;;;;;13.50;99.90;;;;;;1951061;73;20125;-71
2022/11/15 14:09:16;;;;;;;;;;;13.70;99.90;;;;;;1944191;73;20173;-72
2022/11/15 14:11:51;;;;;;;;;;;13.50;99.90;;;;;;1943726;74;20137;-71
2022/11/15 14:14:17;;;;;;;;;;;13.40;99.90;;;;;;1930191;74;20331;-69
2022/11/15 14:16:48;;;;;;;;;;;13.40;99.90;;;;;;1946751;73;20162;-74
2022/11/15 14:19:22;;;;;;;;;;;13.40;99.90;;;;;;1943624;73;20121;-70
2022/11/15 14:22:08;;;;;;;;;;;13.40;99.90;;;;;;1943255;73;20130;-74
2022/11/15 14:24:35;;;;;;;;;;;13.80;99.90;;;;;;1949235;73;20173;-83
2022/11/15 14:27:20;;;;;;;;;;;14.00;99.90;;;;;;1949418;73;20123;-75
2022/11/15 14:29:47;;;;;;;;;;;13.90;99.90;;;;;;1944716;73;20107;-74
2022/11/15 14:32:19;;;;;;;;;;;13.90;99.90;;;;;;1944056;73;20187;-75
2022/11/15 14:34:46;;;;;;;;;;;13.80;99.90;;;;;;1940740;73;20118;-80
2022/11/15 14:37:19;;;;;;;;;;;13.60;99.90;;;;;;1947641;73;20356;-74
2022/11/15 14:39:45;;;;;;;;;;;13.40;99.90;;;;;;1944635;73;20122;-71
2022/11/15 14:42:12;;;;;;;;;;;13.00;99.90;;;;;;1944059;73;20131;-74
2022/11/15 14:44:39;;;;;;;;;;;12.80;99.90;;;;;;1943263;74;20132;-73
2022/11/15 14:47:05;;;;;;;;;;;13.00;99.90;;;;;;1946874;73;20185;-74